createdAt,value
2023-03-15T00:09:39.532Z,100190.34
2023-03-15T00:24:29.919Z,100212.81
2023-03-15T00:39:19.268Z,100232.84
2023-03-15T00:54:08.974Z,100255.67
2023-03-15T01:08:59.196Z,100259.41
2023-03-15T01:23:49.942Z,100259.94
2023-03-15T01:38:39.746Z,100256.78
2023-03-15T01:53:30.186Z,100276.52
2023-03-15T02:08:20.451Z,100295.15
2023-03-15T02:23:09.965Z,100316.30
2023-03-15T02:38:00.311Z,100340.00
2023-03-15T02:52:49.790Z,100357.75
2023-03-15T03:07:39.595Z,100375.73
2023-03-15T03:22:31.225Z,100396.37
2023-03-15T03:37:21.006Z,100406.06
2023-03-15T03:52:10.863Z,100429.38
2023-03-15T04:07:00.960Z,100445.16
2023-03-15T04:21:51.669Z,100450.94
2023-03-15T04:36:40.835Z,100447.59
2023-03-15T04:51:30.187Z,100454.19
2023-03-15T05:06:20.615Z,100463.81
2023-03-15T05:21:10.762Z,100456.92
2023-03-15T05:36:00.374Z,100480.91
2023-03-15T05:50:49.884Z,100476.53
2023-03-15T06:05:39.909Z,100483.92
2023-03-15T06:20:30.267Z,100500.86
2023-03-15T06:35:20.789Z,100516.84
2023-03-15T06:50:11.940Z,100540.20
2023-03-15T07:05:02.463Z,100541.28
2023-03-15T07:19:56.543Z,100538.20
2023-03-15T07:34:44.025Z,100552.27
2023-03-15T07:49:35.631Z,100559.35
2023-03-15T08:04:25.509Z,100560.98
2023-03-15T08:19:16.637Z,100568.01
2023-03-15T08:34:07.938Z,100570.18
2023-03-15T08:48:59.728Z,100573.49
2023-03-15T09:03:52.044Z,100585.56
2023-03-15T09:18:42.309Z,100599.14
2023-03-15T09:33:33.184Z,100604.86
2023-03-15T09:48:31.170Z,100601.67
2023-03-15T10:03:32.515Z,100603.13
2023-03-15T10:18:28.438Z,100611.70
2023-03-15T10:33:22.249Z,100629.84
2023-03-15T10:48:15.330Z,100651.92
2023-03-15T11:03:07.998Z,100638.13
2023-03-15T11:17:59.115Z,100660.87
2023-03-15T11:32:49.609Z,100647.31
2023-03-15T11:47:55.978Z,100651.91
2023-03-15T12:02:50.585Z,100649.70
2023-03-15T12:17:50.776Z,100652.10
2023-03-15T12:32:46.353Z,100642.68
2023-03-15T12:47:52.220Z,100649.48
2023-03-15T13:02:51.901Z,100631.54
2023-03-15T13:17:48.248Z,100624.86
2023-03-15T13:32:37.959Z,100637.30
2023-03-15T13:47:27.346Z,100634.24
2023-03-15T14:02:28.256Z,100630.74
2023-03-15T14:17:24.670Z,100614.36
2023-03-15T14:32:24.392Z,100639.41
2023-03-15T14:47:19.844Z,100639.63
2023-03-15T15:02:10.124Z,100646.91
2023-03-15T15:17:00.719Z,100661.60
2023-03-15T15:31:51.527Z,100662.05
2023-03-15T15:46:42.038Z,100669.27
2023-03-15T16:01:32.490Z,100679.60
2023-03-15T16:16:23.506Z,100689.72
2023-03-15T16:31:14.041Z,100686.42
2023-03-15T16:46:16.655Z,100701.55
2023-03-15T17:01:11.358Z,100715.84
2023-03-15T17:16:02.024Z,100721.36
2023-03-15T17:30:59.596Z,100729.71
2023-03-15T17:45:42.019Z,100749.53
2023-03-15T18:00:31.876Z,100773.07
2023-03-15T18:15:21.507Z,100773.88
2023-03-15T18:30:11.604Z,100789.41
2023-03-15T18:59:52.961Z,100800.98
2023-03-15T19:14:43.711Z,100807.19
2023-03-15T19:29:34.556Z,100816.97
2023-03-15T19:44:24.788Z,100815.97
2023-03-15T19:59:14.362Z,100822.11
2023-03-15T20:28:55.366Z,100828.52
2023-03-15T20:43:44.712Z,100839.27
2023-03-15T20:58:35.033Z,100846.52
2023-03-15T21:13:25.681Z,100854.95
2023-03-15T21:28:15.723Z,100852.03
2023-03-15T21:43:05.794Z,100849.55
2023-03-15T21:57:55.689Z,100848.29
2023-03-15T22:12:45.452Z,100845.02
2023-03-15T22:27:35.574Z,100848.55
2023-03-15T22:42:26.431Z,100846.48
2023-03-15T22:57:17.217Z,100833.91
2023-03-15T23:12:08.605Z,100825.71
2023-03-15T23:27:00.195Z,100826.16
2023-03-15T23:41:49.967Z,100810.03
2023-03-15T23:56:40.149Z,100806.98
